Time;durP1;ratioP1;P1;durP2;ratioP2;P2;SDS_P1;SDS_P2;PMS_P1;PMS_P2;Temp;Humidity;BMP_temperature;BMP_pressure;BME280_temperature;BME280_humidity;BME280_pressure;Samples;Min_cycle;Max_cycle;Signal;HPM_P1;HPM_P2
2024/03/18 05:01:27;;;;;;;0.77;0.77;;;3.20;99.90;;;;;;5458823;23;20327;-72
2024/03/18 05:03:53;;;;;;;1.30;1.20;;;3.20;99.90;;;;;;4947669;29;20676;-72
2024/03/18 05:06:20;;;;;;;2.70;1.02;;;3.20;99.90;;;;;;4953648;29;20209;-72
2024/03/18 05:08:46;;;;;;;1.88;1.27;;;3.30;99.90;;;;;;4949500;28;20212;-71
2024/03/18 05:11:13;;;;;;;0.95;0.95;;;3.20;99.90;;;;;;4946860;29;20326;-71
2024/03/18 05:13:40;;;;;;;2.15;1.13;;;3.20;99.90;;;;;;4946464;29;20213;-71
2024/03/18 05:16:07;;;;;;;1.35;1.00;;;3.30;99.90;;;;;;4948501;28;20214;-71
2024/03/18 05:18:35;;;;;;;1.23;1.23;;;3.20;99.90;;;;;;4947181;29;20653;-71
2024/03/18 05:21:01;;;;;;;1.52;1.52;;;3.20;99.90;;;;;;4950269;29;20239;-71
2024/03/18 05:23:28;;;;;;;1.38;1.27;;;3.30;99.90;;;;;;4944452;28;20297;-71
2024/03/18 05:25:55;;;;;;;0.98;0.68;;;3.30;99.90;;;;;;4947401;29;20207;-70
2024/03/18 05:28:21;;;;;;;1.15;1.05;;;3.30;99.90;;;;;;4949716;29;20211;-71
2024/03/18 05:30:48;;;;;;;0.70;0.70;;;3.30;99.90;;;;;;4946004;29;20702;-72
2024/03/18 05:33:15;;;;;;;2.30;1.48;;;3.30;99.90;;;;;;4943822;29;20248;-72
2024/03/18 05:35:43;;;;;;;1.48;1.25;;;3.20;99.90;;;;;;4950278;29;20242;-71
2024/03/18 05:38:09;;;;;;;5.47;1.80;;;3.20;99.90;;;;;;4946644;29;20217;-71
2024/03/18 05:40:36;;;;;;;1.48;1.48;;;3.20;99.90;;;;;;4948357;29;20229;-71
2024/03/18 05:43:03;;;;;;;1.27;1.27;;;3.20;99.90;;;;;;4949749;29;20215;-72
2024/03/18 05:45:30;;;;;;;0.68;0.65;;;3.10;99.90;;;;;;4951138;29;20580;-70
2024/03/18 05:47:57;;;;;;;1.95;1.63;;;3.10;99.90;;;;;;4948417;29;20207;-70
2024/03/18 05:50:24;;;;;;;0.90;0.90;;;3.10;99.90;;;;;;4945445;29;20206;-71
2024/03/18 05:52:52;;;;;;;2.97;1.65;;;3.10;99.90;;;;;;4948490;29;20217;-71
2024/03/18 05:55:19;;;;;;;0.80;0.80;;;3.10;99.90;;;;;;4942657;29;20242;-71
2024/03/18 05:57:46;;;;;;;1.15;1.15;;;3.10;99.90;;;;;;4949641;29;20265;-71
2024/03/18 06:00:13;;;;;;;1.73;1.67;;;3.10;99.90;;;;;;4951144;29;20214;-70
2024/03/18 06:02:40;;;;;;;1.08;1.08;;;3.20;99.90;;;;;;4949393;29;20616;-70
2024/03/18 06:05:08;;;;;;;3.65;2.25;;;3.20;99.90;;;;;;4938133;28;20215;-71
2024/03/18 06:07:35;;;;;;;1.30;1.30;;;3.20;99.90;;;;;;4947900;28;20215;-73
2024/03/18 06:10:03;;;;;;;1.75;0.70;;;3.30;99.90;;;;;;4941826;29;20222;-71
2024/03/18 06:12:30;;;;;;;1.00;1.00;;;3.30;99.90;;;;;;4950633;29;20256;-72
2024/03/18 06:14:57;;;;;;;3.45;1.80;;;3.30;99.90;;;;;;4943524;29;20223;-72
2024/03/18 06:17:24;;;;;;;3.30;1.17;;;3.30;99.90;;;;;;4950249;29;20208;-72
2024/03/18 06:19:57;;;;;;;1.50;0.80;;;3.30;99.90;;;;;;4947614;29;20223;-73
2024/03/18 06:22:26;;;;;;;0.55;0.55;;;3.40;99.90;;;;;;4952333;29;20244;-71
2024/03/18 06:27:39;;;;;;;1.92;1.92;;;3.40;99.90;;;;;;4945710;29;20227;-72
2024/03/18 06:30:07;;;;;;;3.30;1.27;;;3.50;99.90;;;;;;4948766;28;20294;-71
2024/03/18 06:32:33;;;;;;;2.13;1.77;;;3.50;99.90;;;;;;4951857;28;20590;-72
2024/03/18 06:35:00;;;;;;;0.95;0.95;;;3.50;99.90;;;;;;4948138;28;20238;-72
2024/03/18 06:37:28;;;;;;;4.20;1.77;;;3.50;99.90;;;;;;4951496;29;20225;-71
2024/03/18 06:39:54;;;;;;;0.82;0.82;;;3.60;99.90;;;;;;4954749;29;20213;-73
2024/03/18 06:42:20;;;;;;;1.77;1.02;;;3.70;99.90;;;;;;4944745;29;20232;-72
2024/03/18 06:44:48;;;;;;;2.83;2.63;;;3.70;99.90;;;;;;4945071;29;20198;-73
2024/03/18 06:47:15;;;;;;;1.67;1.58;;;3.80;99.90;;;;;;4938932;29;20211;-73
2024/03/18 06:49:41;;;;;;;1.60;0.98;;;3.90;99.90;;;;;;4945381;29;20214;-72
2024/03/18 06:52:08;;;;;;;1.13;0.95;;;3.90;99.90;;;;;;4940844;28;20231;-72
2024/03/18 06:54:35;;;;;;;1.10;1.05;;;3.90;99.90;;;;;;4945148;29;20327;-73
2024/03/18 06:57:02;;;;;;;2.15;1.65;;;3.90;99.90;;;;;;4941137;28;20220;-73
2024/03/18 06:59:29;;;;;;;0.85;0.55;;;4.00;99.90;;;;;;4950653;29;20243;-72
2024/03/18 07:01:57;;;;;;;5.50;1.30;;;4.10;99.90;;;;;;4951252;28;20246;-72
2024/03/18 07:04:24;;;;;;;1.73;1.60;;;4.20;99.90;;;;;;4951236;29;22329;-72
2024/03/18 07:06:50;;;;;;;2.40;1.92;;;4.30;99.90;;;;;;4947543;28;20219;-71
2024/03/18 07:09:17;;;;;;;2.63;1.50;;;4.30;99.90;;;;;;4953084;29;20212;-71
2024/03/18 07:11:44;;;;;;;2.85;2.25;;;4.40;99.90;;;;;;4951843;28;20243;-73
2024/03/18 07:14:10;;;;;;;1.65;1.55;;;4.40;99.90;;;;;;4955479;29;20216;-72
2024/03/18 07:16:37;;;;;;;2.30;2.10;;;4.50;99.90;;;;;;4953608;29;20237;-71
2024/03/18 07:19:05;;;;;;;1.90;1.80;;;4.60;99.90;;;;;;4951205;29;20217;-72
2024/03/18 07:21:32;;;;;;;2.58;2.38;;;4.70;99.90;;;;;;4949663;28;20236;-72
2024/03/18 07:23:59;;;;;;;2.53;2.42;;;4.70;99.90;;;;;;4953173;29;20216;-72
2024/03/18 07:26:26;;;;;;;1.88;1.77;;;4.70;99.90;;;;;;4949135;29;20205;-72
2024/03/18 07:28:52;;;;;;;2.35;2.08;;;4.80;99.90;;;;;;4952929;29;20577;-71
2024/03/18 07:31:19;;;;;;;2.00;1.90;;;4.80;99.90;;;;;;4953943;29;20229;-72
2024/03/18 07:33:46;;;;;;;1.25;1.15;;;4.90;99.90;;;;;;4944485;28;20214;-72
2024/03/18 07:36:14;;;;;;;1.73;1.50;;;4.90;99.90;;;;;;4948454;29;20327;-72
2024/03/18 07:38:41;;;;;;;5.35;3.17;;;5.00;99.90;;;;;;4951401;29;20213;-72
2024/03/18 07:41:07;;;;;;;2.08;1.95;;;5.10;99.90;;;;;;4945581;29;20233;-70
2024/03/18 07:43:34;;;;;;;1.05;0.98;;;5.10;99.90;;;;;;4945581;29;20206;-70
2024/03/18 07:46:01;;;;;;;2.15;1.58;;;5.00;99.90;;;;;;4947767;28;20205;-70
2024/03/18 07:48:28;;;;;;;0.65;0.65;;;5.10;99.90;;;;;;4950466;29;20221;-70
2024/03/18 07:50:56;;;;;;;3.80;3.58;;;5.20;99.90;;;;;;4948961;29;20221;-70
2024/03/18 07:53:24;;;;;;;1.33;1.23;;;5.20;99.90;;;;;;4943356;28;20213;-70
2024/03/18 07:56:00;;;;;;;2.03;1.90;;;5.20;99.90;;;;;;4944554;28;20232;-70
2024/03/18 07:58:27;;;;;;;2.72;1.63;;;5.20;99.90;;;;;;4946256;28;20614;-70
2024/03/18 08:00:55;;;;;;;1.00;0.95;;;5.20;99.90;;;;;;4949072;29;20233;-70
2024/03/18 08:03:21;;;;;;;2.25;1.90;;;5.20;99.90;;;;;;4949985;29;20308;-70
2024/03/18 08:05:48;;;;;;;2.83;2.00;;;5.30;99.90;;;;;;4949205;28;20300;-70
2024/03/18 08:08:15;;;;;;;3.97;1.33;;;5.30;99.90;;;;;;4950053;28;20594;-70
2024/03/18 08:10:43;;;;;;;0.88;0.88;;;5.40;99.90;;;;;;4946144;29;20229;-70
2024/03/18 08:13:10;;;;;;;1.27;1.27;;;5.40;99.90;;;;;;4949547;29;20206;-70
2024/03/18 08:15:38;;;;;;;10.50;2.33;;;5.50;99.90;;;;;;4951776;29;20221;-70
2024/03/18 08:18:05;;;;;;;4.80;1.77;;;5.40;99.90;;;;;;4950514;29;20585;-70
2024/03/18 08:20:32;;;;;;;0.93;0.93;;;5.60;99.90;;;;;;4945995;29;20230;-70
2024/03/18 08:22:59;;;;;;;2.30;2.20;;;5.60;99.90;;;;;;4945588;29;20209;-70
2024/03/18 08:25:28;;;;;;;2.25;1.48;;;5.60;99.90;;;;;;4948869;29;20213;-70
2024/03/18 08:27:56;;;;;;;0.85;0.85;;;5.70;99.90;;;;;;4949756;28;20210;-70
2024/03/18 08:30:23;;;;;;;1.10;0.80;;;5.80;99.90;;;;;;4940416;29;20675;-70
2024/03/18 08:32:49;;;;;;;2.72;1.40;;;5.80;99.90;;;;;;4948358;29;20221;-71
2024/03/18 08:35:16;;;;;;;1.95;0.98;;;6.00;99.90;;;;;;4945072;28;20221;-70
2024/03/18 08:37:43;;;;;;;0.85;0.85;;;6.20;99.90;;;;;;4950491;28;20241;-70
2024/03/18 08:40:13;;;;;;;1.65;1.55;;;6.20;99.90;;;;;;4951678;28;20220;-70
2024/03/18 08:42:40;;;;;;;6.05;2.80;;;6.30;99.90;;;;;;4941960;28;20303;-70
2024/03/18 08:45:09;;;;;;;3.08;2.75;;;6.40;99.90;;;;;;4935937;28;20210;-70
2024/03/18 08:47:35;;;;;;;5.70;2.22;;;6.60;99.90;;;;;;4934096;28;20206;-70
2024/03/18 08:50:02;;;;;;;1.52;1.42;;;6.60;99.90;;;;;;4935963;29;20579;-70
2024/03/18 08:52:29;;;;;;;2.00;1.35;;;6.60;99.90;;;;;;4938430;28;20277;-70
2024/03/18 08:54:56;;;;;;;2.47;1.00;;;6.70;99.90;;;;;;4937022;29;20626;-71
2024/03/18 08:57:23;;;;;;;9.70;2.13;;;6.70;99.90;;;;;;4937465;29;20208;-70
2024/03/18 08:59:50;;;;;;;1.42;1.42;;;6.70;99.90;;;;;;4940957;29;20596;-71
2024/03/18 09:02:18;;;;;;;1.00;1.00;;;6.60;99.90;;;;;;4936285;28;20251;-70
2024/03/18 09:04:44;;;;;;;1.38;1.38;;;6.50;99.90;;;;;;4940185;29;20692;-70
2024/03/18 09:07:11;;;;;;;1.83;1.67;;;6.40;99.90;;;;;;4946086;29;20234;-70
2024/03/18 09:09:38;;;;;;;1.88;1.77;;;6.40;99.90;;;;;;4942826;28;20225;-69
2024/03/18 09:12:05;;;;;;;2.35;1.27;;;6.50;99.90;;;;;;4937524;29;20233;-68
2024/03/18 09:14:31;;;;;;;1.20;1.08;;;6.60;99.90;;;;;;4940371;28;20224;-69
2024/03/18 09:17:01;;;;;;;1.40;1.30;;;6.70;99.90;;;;;;4939694;29;20249;-69
2024/03/18 09:19:30;;;;;;;1.88;1.17;;;6.60;99.90;;;;;;4938743;29;20571;-70
2024/03/18 09:21:57;;;;;;;3.42;2.70;;;6.60;99.90;;;;;;4941087;28;20228;-70
2024/03/18 09:24:24;;;;;;;4.07;3.08;;;6.70;99.90;;;;;;4940926;28;20297;-69
2024/03/18 09:26:51;;;;;;;5.80;2.67;;;6.80;99.90;;;;;;4941199;28;20233;-70
2024/03/18 09:29:18;;;;;;;2.97;2.88;;;6.80;99.90;;;;;;4935349;29;20208;-69
2024/03/18 09:31:45;;;;;;;3.38;2.45;;;6.80;99.90;;;;;;4945820;29;20731;-69
2024/03/18 09:34:13;;;;;;;1.50;1.40;;;6.80;99.90;;;;;;4935240;29;20555;-69
2024/03/18 09:36:41;;;;;;;2.55;2.45;;;6.90;99.90;;;;;;4935743;29;20654;-69
2024/03/18 09:39:08;;;;;;;1.05;1.02;;;6.90;99.90;;;;;;4937327;29;20223;-69
2024/03/18 09:41:36;;;;;;;4.03;2.20;;;6.90;99.90;;;;;;4935320;29;20307;-69
2024/03/18 09:44:08;;;;;;;3.55;2.75;;;7.10;99.90;;;;;;4935532;29;20268;-69
2024/03/18 09:46:34;;;;;;;1.48;1.00;;;7.10;99.90;;;;;;4935569;29;20583;-69
2024/03/18 09:49:01;;;;;;;2.38;2.28;;;7.10;99.90;;;;;;4945343;28;20217;-69
2024/03/18 09:51:30;;;;;;;0.57;0.57;;;7.20;99.90;;;;;;4941725;29;20235;-69
2024/03/18 09:53:58;;;;;;;1.70;1.70;;;7.20;99.90;;;;;;4937384;28;20222;-70
2024/03/18 09:56:24;;;;;;;1.25;1.25;;;7.10;99.90;;;;;;4940553;29;20607;-69
2024/03/18 09:58:51;;;;;;;0.70;0.70;;;7.10;99.90;;;;;;4946990;29;20218;-69
2024/03/18 10:01:19;;;;;;;1.63;1.48;;;7.20;99.90;;;;;;4940215;29;20239;-69
2024/03/18 10:03:46;;;;;;;4.35;2.28;;;7.20;99.90;;;;;;4937024;29;20221;-69
2024/03/18 10:06:13;;;;;;;1.55;0.90;;;7.20;99.90;;;;;;4947677;28;20559;-69
2024/03/18 10:08:40;;;;;;;2.05;1.92;;;7.10;99.90;;;;;;4951075;28;20727;-69
2024/03/18 10:11:13;;;;;;;1.30;1.20;;;7.20;99.90;;;;;;4943861;28;20235;-70
2024/03/18 10:13:40;;;;;;;2.67;2.45;;;7.30;99.90;;;;;;4950408;28;20216;-69
2024/03/18 10:16:11;;;;;;;2.25;2.13;;;7.40;99.90;;;;;;4955112;29;20258;-69
2024/03/18 10:18:38;;;;;;;0.43;0.43;;;7.40;99.90;;;;;;4944912;29;20217;-69
2024/03/18 10:21:05;;;;;;;3.40;3.20;;;7.60;99.90;;;;;;4947286;28;20587;-70
2024/03/18 10:23:31;;;;;;;0.63;0.43;;;7.60;99.90;;;;;;4945795;28;20232;-69
2024/03/18 10:26:01;;;;;;;1.75;1.67;;;7.50;99.90;;;;;;4942495;29;20211;-71
2024/03/18 10:28:29;;;;;;;1.77;1.67;;;7.50;99.90;;;;;;4945869;29;20296;-70
2024/03/18 10:30:57;;;;;;;4.45;2.55;;;7.70;99.90;;;;;;4946713;29;20258;-69
2024/03/18 10:33:25;;;;;;;1.17;0.90;;;7.80;99.90;;;;;;4939192;29;20284;-69
2024/03/18 10:35:54;;;;;;;3.20;1.27;;;7.90;99.90;;;;;;4944886;29;20275;-69
2024/03/18 10:38:24;;;;;;;0.63;0.63;;;7.90;99.90;;;;;;4945000;28;20299;-69
2024/03/18 10:40:53;;;;;;;1.50;1.50;;;8.00;99.90;;;;;;4943468;28;20951;-69
2024/03/18 10:43:31;;;;;;;3.00;1.70;;;8.00;99.90;;;;;;4941906;29;20217;-68
2024/03/18 10:45:58;;;;;;;2.13;1.98;;;8.00;99.90;;;;;;4944755;29;20237;-71
2024/03/18 10:48:27;;;;;;;1.70;1.60;;;8.20;99.90;;;;;;4939042;29;20214;-70
2024/03/18 10:50:54;;;;;;;3.83;2.35;;;8.40;99.90;;;;;;4938145;29;20245;-69
2024/03/18 10:53:24;;;;;;;1.98;1.88;;;8.40;99.90;;;;;;4949282;28;20209;-69
2024/03/18 10:55:53;;;;;;;2.60;1.58;;;8.50;99.90;;;;;;4951889;29;20287;-70
2024/03/18 10:58:21;;;;;;;1.42;1.35;;;8.70;99.90;;;;;;4940321;28;20297;-69
2024/03/18 11:00:49;;;;;;;2.60;1.63;;;8.50;99.90;;;;;;4946365;28;20750;-69
2024/03/18 11:03:18;;;;;;;3.20;2.90;;;8.40;99.90;;;;;;4941877;28;20655;-70
2024/03/18 11:05:50;;;;;;;2.75;1.73;;;8.50;99.90;;;;;;4939211;28;20220;-69
2024/03/18 11:08:18;;;;;;;1.70;1.70;;;8.60;99.90;;;;;;4938998;28;20268;-70
2024/03/18 11:10:46;;;;;;;1.73;1.63;;;8.70;99.90;;;;;;4946410;28;20232;-70
2024/03/18 11:13:15;;;;;;;0.68;0.68;;;8.70;99.90;;;;;;4944684;28;20699;-69
2024/03/18 11:15:53;;;;;;;1.20;1.08;;;8.60;99.90;;;;;;4942423;29;20240;-69
2024/03/18 11:18:22;;;;;;;0.57;0.57;;;8.70;99.90;;;;;;4939501;29;20764;-69
2024/03/18 11:20:51;;;;;;;0.50;0.50;;;8.70;99.90;;;;;;4941549;28;20237;-69
2024/03/18 11:23:19;;;;;;;1.73;1.20;;;8.70;99.90;;;;;;4940104;28;20201;-70
2024/03/18 11:25:52;;;;;;;1.88;1.77;;;8.70;99.90;;;;;;4938527;28;20205;-70
2024/03/18 11:28:19;;;;;;;0.75;0.75;;;8.90;99.90;;;;;;4943586;28;20213;-69
2024/03/18 11:30:47;;;;;;;1.60;1.60;;;8.90;99.90;;;;;;4940386;29;20236;-69
2024/03/18 11:33:14;;;;;;;0.82;0.82;;;8.90;99.90;;;;;;4941193;29;20213;-69
2024/03/18 11:35:43;;;;;;;0.82;0.77;;;8.90;99.90;;;;;;4939166;29;20220;-69
2024/03/18 11:38:13;;;;;;;1.67;1.58;;;9.00;99.90;;;;;;4938063;28;20632;-70
2024/03/18 11:40:40;;;;;;;2.78;1.77;;;9.00;99.90;;;;;;4938881;29;20226;-70
2024/03/18 11:43:07;;;;;;;1.38;1.35;;;9.10;99.90;;;;;;4941440;28;20213;-70
2024/03/18 11:45:34;;;;;;;0.88;0.88;;;9.20;99.90;;;;;;4939491;29;20217;-70
2024/03/18 11:48:05;;;;;;;0.50;0.50;;;9.40;99.90;;;;;;4942334;29;20561;-69
2024/03/18 11:50:32;;;;;;;1.95;1.33;;;9.40;99.90;;;;;;4939142;29;21016;-69
2024/03/18 11:53:01;;;;;;;2.33;1.60;;;9.30;99.90;;;;;;4942104;28;20209;-69
2024/03/18 11:55:29;;;;;;;2.25;2.05;;;9.40;99.90;;;;;;4939033;29;20209;-70
2024/03/18 11:57:56;;;;;;;1.35;1.30;;;9.50;99.90;;;;;;4940828;29;20230;-70
2024/03/18 12:00:23;;;;;;;1.33;1.33;;;9.70;99.90;;;;;;4937121;29;20563;-70
2024/03/18 12:02:50;;;;;;;1.23;1.13;;;9.80;99.90;;;;;;4937807;29;20210;-69
2024/03/18 12:05:16;;;;;;;0.90;0.90;;;9.90;99.90;;;;;;4939947;29;20644;-69
2024/03/18 12:07:43;;;;;;;1.23;1.23;;;10.00;99.90;;;;;;4943215;28;20632;-69
2024/03/18 12:10:16;;;;;;;1.45;1.35;;;10.00;99.90;;;;;;4941912;29;20217;-69
2024/03/18 12:12:43;;;;;;;1.02;1.02;;;10.20;99.90;;;;;;4939528;29;20216;-69
2024/03/18 12:15:11;;;;;;;1.00;1.00;;;10.30;99.90;;;;;;4941027;28;20205;-68
2024/03/18 12:17:38;;;;;;;0.77;0.40;;;10.40;99.90;;;;;;4939144;29;20705;-68
2024/03/18 12:20:06;;;;;;;0.30;0.30;;;10.40;99.90;;;;;;4941915;28;20217;-70
2024/03/18 12:22:34;;;;;;;1.13;1.00;;;10.50;99.90;;;;;;4944108;29;20230;-69
2024/03/18 12:30:34;;;;;;;1.25;1.20;;;10.80;99.90;;;;;;4943900;28;20595;-69
2024/03/18 12:33:05;;;;;;;2.53;1.25;;;10.70;99.90;;;;;;4938110;28;20270;-70
2024/03/18 12:35:32;;;;;;;1.40;1.20;;;10.70;99.90;;;;;;4938916;29;20214;-69
2024/03/18 12:37:59;;;;;;;1.67;1.55;;;10.70;99.90;;;;;;4941618;29;20600;-69
2024/03/18 12:40:26;;;;;;;1.42;1.33;;;10.60;99.90;;;;;;4939171;29;20206;-69
2024/03/18 12:42:56;;;;;;;1.52;1.52;;;10.50;99.90;;;;;;4940033;28;20206;-69
2024/03/18 12:45:23;;;;;;;2.00;2.00;;;10.50;99.90;;;;;;4937278;28;20308;-69
2024/03/18 12:47:52;;;;;;;1.85;1.85;;;10.50;99.90;;;;;;4940018;29;20206;-69
2024/03/18 12:50:20;;;;;;;2.17;1.70;;;10.40;99.90;;;;;;4945438;29;20209;-70
2024/03/18 12:52:46;;;;;;;1.65;1.55;;;10.40;99.90;;;;;;4940105;29;20561;-70
2024/03/18 12:55:13;;;;;;;2.17;1.70;;;10.40;99.90;;;;;;4942994;28;20325;-70
2024/03/18 12:57:43;;;;;;;1.10;1.10;;;10.40;99.90;;;;;;4945028;29;20222;-70
2024/03/18 13:00:12;;;;;;;0.93;0.93;;;10.30;99.90;;;;;;4940426;29;20301;-70
2024/03/18 13:02:42;;;;;;;1.48;1.38;;;10.30;99.90;;;;;;4942075;29;20205;-70
2024/03/18 13:05:09;;;;;;;1.90;1.80;;;10.40;99.90;;;;;;4940543;29;20209;-70
2024/03/18 13:07:38;;;;;;;0.70;0.70;;;10.50;99.90;;;;;;4942896;28;20198;-70
2024/03/18 13:10:06;;;;;;;2.95;1.92;;;10.60;99.90;;;;;;4945152;28;20535;-70
2024/03/18 13:12:33;;;;;;;1.50;1.40;;;10.70;99.90;;;;;;4947497;29;20238;-70
2024/03/18 13:15:01;;;;;;;1.17;1.17;;;10.70;99.90;;;;;;4945552;29;20234;-71
2024/03/18 13:17:31;;;;;;;1.17;1.17;;;10.80;99.90;;;;;;4948093;28;20257;-70
2024/03/18 13:19:59;;;;;;;1.20;1.20;;;10.80;99.90;;;;;;4944760;29;20209;-71
2024/03/18 13:22:26;;;;;;;1.55;1.45;;;10.80;99.80;;;;;;4941539;29;20233;-71
2024/03/18 13:24:53;;;;;;;1.05;0.65;;;10.80;99.90;;;;;;4940405;28;20580;-71
2024/03/18 13:27:20;;;;;;;1.02;1.02;;;10.80;99.80;;;;;;4940661;29;20532;-70
2024/03/18 13:29:47;;;;;;;1.77;1.67;;;10.80;99.90;;;;;;4936752;29;20683;-70
2024/03/18 13:32:14;;;;;;;1.50;1.50;;;10.90;99.90;;;;;;4942099;29;20236;-70
2024/03/18 13:34:42;;;;;;;1.20;1.20;;;11.00;99.90;;;;;;4938730;29;20225;-70
2024/03/18 13:37:09;;;;;;;1.37;1.27;;;11.10;99.90;;;;;;4938991;28;20839;-71
2024/03/18 13:39:38;;;;;;;0.88;0.88;;;11.20;99.90;;;;;;4938955;29;20466;-71
2024/03/18 13:42:09;;;;;;;0.85;0.85;;;11.10;99.90;;;;;;4942115;29;20237;-70
2024/03/18 13:44:36;;;;;;;2.90;2.70;;;10.90;99.90;;;;;;4938973;29;20289;-69
2024/03/18 13:47:03;;;;;;;1.42;1.33;;;10.80;99.90;;;;;;4942131;29;20213;-69
2024/03/18 13:49:35;;;;;;;2.65;1.48;;;10.80;99.90;;;;;;4939811;29;20218;-69
2024/03/18 13:52:04;;;;;;;2.67;1.67;;;10.90;99.80;;;;;;4944811;28;20410;-69
2024/03/18 13:54:32;;;;;;;1.50;1.40;;;10.90;99.30;;;;;;4939795;28;20297;-69
2024/03/18 13:57:02;;;;;;;1.63;1.50;;;10.80;98.70;;;;;;4937589;29;20230;-70
2024/03/18 13:59:34;;;;;;;3.13;2.83;;;10.80;99.90;;;;;;4940502;28;20220;-69
2024/03/18 14:02:01;;;;;;;1.55;1.45;;;10.80;99.80;;;;;;4941821;29;20720;-69
2024/03/18 14:04:31;;;;;;;1.83;1.70;;;10.80;99.90;;;;;;4939503;28;20220;-69
2024/03/18 14:06:58;;;;;;;2.55;2.28;;;10.80;99.90;;;;;;4941558;29;20840;-69
2024/03/18 14:09:28;;;;;;;2.15;1.50;;;10.70;99.90;;;;;;4940951;28;20268;-69
2024/03/18 14:11:55;;;;;;;2.85;2.13;;;10.70;99.90;;;;;;4940776;29;20245;-70
2024/03/18 14:14:22;;;;;;;4.05;1.85;;;10.70;99.90;;;;;;4940925;29;20212;-69
2024/03/18 14:16:49;;;;;;;1.65;1.48;;;10.70;99.90;;;;;;4938918;29;20229;-69
2024/03/18 14:19:18;;;;;;;2.35;2.15;;;10.80;99.90;;;;;;4939195;28;20214;-70
2024/03/18 14:21:45;;;;;;;1.10;1.00;;;10.70;99.90;;;;;;4940034;29;20229;-69
2024/03/18 14:24:12;;;;;;;3.55;2.28;;;10.70;99.90;;;;;;4942325;29;20213;-71
2024/03/18 14:26:40;;;;;;;1.67;1.58;;;10.60;99.90;;;;;;4939778;29;20220;-69
2024/03/18 14:29:08;;;;;;;1.58;1.10;;;10.60;99.90;;;;;;4942393;29;20213;-69
2024/03/18 14:31:35;;;;;;;2.83;2.40;;;10.60;99.90;;;;;;4938727;29;20257;-69
2024/03/18 14:34:02;;;;;;;1.40;1.30;;;10.70;99.90;;;;;;4941506;29;20324;-69
2024/03/18 14:36:29;;;;;;;6.00;2.90;;;10.80;99.90;;;;;;4944314;28;20225;-69
2024/03/18 14:38:56;;;;;;;7.00;3.08;;;10.80;99.90;;;;;;4940306;28;20229;-69
2024/03/18 14:41:24;;;;;;;2.90;2.55;;;10.80;99.90;;;;;;4944515;28;20240;-70
2024/03/18 14:43:53;;;;;;;1.73;1.60;;;10.80;99.90;;;;;;4939620;29;20206;-70
2024/03/18 14:46:20;;;;;;;1.65;1.35;;;10.80;99.90;;;;;;4941925;29;20224;-70
2024/03/18 14:48:46;;;;;;;2.15;1.40;;;10.70;99.90;;;;;;4941283;29;20202;-69
2024/03/18 14:51:13;;;;;;;1.40;1.40;;;10.60;99.90;;;;;;4944732;28;20231;-70
2024/03/18 14:53:42;;;;;;;1.40;1.40;;;10.60;99.90;;;;;;4940453;28;20214;-70
2024/03/18 14:56:10;;;;;;;5.30;1.52;;;10.50;99.90;;;;;;4945233;28;20612;-68
2024/03/18 14:58:37;;;;;;;2.65;1.50;;;10.40;99.90;;;;;;4942926;29;20225;-69
2024/03/18 15:01:06;;;;;;;1.25;1.25;;;10.30;99.90;;;;;;4948057;29;20260;-69
2024/03/18 15:03:33;;;;;;;1.73;1.33;;;10.20;99.90;;;;;;4941643;28;20241;-70
2024/03/18 15:05:59;;;;;;;2.47;2.28;;;10.20;99.90;;;;;;4944852;29;20237;-69
2024/03/18 15:08:26;;;;;;;0.90;0.90;;;10.10;99.90;;;;;;4942618;28;20237;-69
2024/03/18 15:10:54;;;;;;;6.78;1.95;;;10.10;99.90;;;;;;4944312;28;20309;-68
2024/03/18 15:13:25;;;;;;;2.50;2.00;;;10.10;99.90;;;;;;4944961;29;20300;-69
2024/03/18 15:15:52;;;;;;;4.50;2.97;;;10.20;99.90;;;;;;4945368;29;20213;-68
2024/03/18 15:18:20;;;;;;;3.90;2.60;;;10.20;99.90;;;;;;4945680;29;20225;-69
2024/03/18 15:20:47;;;;;;;2.70;2.40;;;10.20;99.90;;;;;;4946898;29;20238;-71
2024/03/18 15:23:15;;;;;;;2.47;1.88;;;10.20;99.90;;;;;;4946861;29;20209;-69
2024/03/18 15:28:26;;;;;;;1.80;1.70;;;10.20;99.90;;;;;;4942880;28;20224;-70
2024/03/18 15:30:52;;;;;;;2.42;2.22;;;10.10;99.90;;;;;;4944358;29;20712;-70
2024/03/18 15:33:20;;;;;;;1.45;1.35;;;10.10;99.90;;;;;;4945561;29;20213;-70
2024/03/18 15:35:47;;;;;;;2.05;1.50;;;10.10;99.90;;;;;;4943289;29;20210;-70
2024/03/18 15:38:14;;;;;;;0.80;0.80;;;10.00;99.90;;;;;;4946213;29;20300;-69
2024/03/18 15:40:40;;;;;;;2.67;2.58;;;10.00;99.90;;;;;;4942883;28;20393;-70
2024/03/18 15:43:07;;;;;;;0.85;0.82;;;10.10;99.90;;;;;;4945847;29;20296;-70
2024/03/18 15:45:33;;;;;;;2.15;1.25;;;10.10;99.90;;;;;;4943590;29;20216;-70
2024/03/18 15:48:00;;;;;;;4.57;1.10;;;10.20;99.90;;;;;;4945479;29;20209;-70
2024/03/18 15:50:28;;;;;;;3.15;1.30;;;10.20;99.90;;;;;;4944517;29;20640;-69
2024/03/18 15:52:55;;;;;;;1.73;1.60;;;10.20;99.90;;;;;;4945078;29;20210;-70
2024/03/18 15:55:23;;;;;;;1.45;1.40;;;10.10;99.90;;;;;;4945223;29;20624;-69
2024/03/18 15:57:50;;;;;;;1.58;1.33;;;10.10;99.90;;;;;;4945196;28;20222;-70
2024/03/18 16:00:19;;;;;;;1.05;1.05;;;10.00;99.90;;;;;;4946355;29;20260;-70
2024/03/18 16:02:46;;;;;;;1.65;1.50;;;10.00;99.90;;;;;;4943770;29;20217;-69
2024/03/18 16:05:13;;;;;;;3.80;1.60;;;9.90;99.90;;;;;;4945491;29;20231;-69
2024/03/18 16:07:42;;;;;;;0.80;0.80;;;9.90;99.90;;;;;;4945012;28;20198;-69
2024/03/18 16:10:10;;;;;;;1.25;1.25;;;9.80;99.90;;;;;;4943213;29;20209;-70
2024/03/18 16:12:38;;;;;;;1.20;0.93;;;9.70;99.90;;;;;;4943533;28;20729;-69
2024/03/18 16:15:09;;;;;;;0.55;0.55;;;9.60;99.90;;;;;;4945637;29;20209;-69
2024/03/18 16:17:36;;;;;;;1.35;1.25;;;9.60;99.90;;;;;;4943863;28;20304;-69
2024/03/18 16:20:04;;;;;;;2.22;1.95;;;9.50;99.90;;;;;;4940540;29;20239;-70
2024/03/18 16:22:31;;;;;;;3.25;1.55;;;9.50;99.90;;;;;;4948006;29;20260;-70
2024/03/18 16:24:59;;;;;;;2.63;1.50;;;9.50;99.90;;;;;;4946491;28;20344;-70
2024/03/18 16:27:26;;;;;;;0.95;0.95;;;9.40;99.90;;;;;;4940143;29;20217;-69
2024/03/18 16:29:52;;;;;;;1.60;1.60;;;9.40;99.90;;;;;;4944349;29;20557;-69
2024/03/18 16:32:19;;;;;;;1.17;1.17;;;9.40;99.90;;;;;;4946123;29;20232;-69
2024/03/18 16:34:46;;;;;;;1.38;1.27;;;9.40;99.90;;;;;;4942814;29;20540;-70
2024/03/18 16:37:12;;;;;;;1.75;1.40;;;9.40;99.90;;;;;;4946554;29;20213;-69
2024/03/18 16:39:39;;;;;;;1.40;1.40;;;9.30;99.90;;;;;;4945835;29;20217;-69
2024/03/18 16:42:07;;;;;;;3.25;2.03;;;9.30;99.90;;;;;;4950204;28;20261;-69
2024/03/18 16:44:34;;;;;;;2.22;1.30;;;9.30;99.90;;;;;;4944280;28;20213;-69
2024/03/18 16:47:01;;;;;;;1.63;1.52;;;9.30;99.90;;;;;;4945676;29;20206;-68
2024/03/18 16:49:27;;;;;;;2.40;2.20;;;9.30;99.90;;;;;;4945360;29;20220;-69
2024/03/18 16:51:54;;;;;;;1.00;1.00;;;9.20;99.90;;;;;;4944714;29;20234;-69
2024/03/18 16:54:21;;;;;;;1.52;1.45;;;9.20;99.90;;;;;;4946038;28;20209;-70
2024/03/18 16:56:47;;;;;;;2.88;1.70;;;9.20;99.90;;;;;;4943164;29;20202;-69
2024/03/18 16:59:15;;;;;;;1.25;1.20;;;9.10;99.90;;;;;;4946180;29;20240;-69
2024/03/18 17:01:42;;;;;;;1.15;1.15;;;9.10;99.90;;;;;;4943112;29;20234;-69
2024/03/18 17:04:09;;;;;;;1.10;1.00;;;9.00;99.90;;;;;;4940972;29;20532;-69
2024/03/18 17:06:36;;;;;;;1.02;1.02;;;9.00;99.90;;;;;;4944791;29;20226;-69
2024/03/18 17:09:02;;;;;;;0.82;0.82;;;8.90;99.90;;;;;;4945702;28;20233;-70
2024/03/18 17:11:30;;;;;;;1.40;1.40;;;8.90;99.90;;;;;;4945316;29;20554;-69
2024/03/18 17:13:57;;;;;;;1.15;1.15;;;8.90;99.90;;;;;;4943938;29;20209;-69
2024/03/18 17:16:25;;;;;;;1.40;1.30;;;8.90;99.90;;;;;;4942870;28;20229;-69
2024/03/18 17:18:52;;;;;;;1.92;1.70;;;8.80;99.90;;;;;;4943046;28;20340;-69
2024/03/18 17:21:18;;;;;;;1.20;1.20;;;8.80;99.90;;;;;;4946051;29;20287;-69
2024/03/18 17:23:45;;;;;;;4.63;1.60;;;8.70;99.90;;;;;;4942935;29;20680;-69
2024/03/18 17:26:12;;;;;;;2.97;2.83;;;8.70;99.90;;;;;;4946659;29;20243;-69
2024/03/18 17:28:39;;;;;;;2.15;2.08;;;8.70;99.90;;;;;;4943695;29;20660;-69
2024/03/18 17:31:07;;;;;;;1.70;1.63;;;8.60;99.90;;;;;;4945622;28;20244;-69
2024/03/18 17:33:37;;;;;;;3.33;1.77;;;8.60;99.90;;;;;;4944309;29;20220;-69
2024/03/18 17:36:05;;;;;;;4.45;1.27;;;8.60;99.90;;;;;;4945281;29;20276;-69
2024/03/18 17:38:32;;;;;;;1.50;1.40;;;8.50;99.90;;;;;;4944918;28;20233;-69
2024/03/18 17:41:02;;;;;;;0.85;0.85;;;8.50;99.90;;;;;;4945586;29;20248;-69
2024/03/18 17:43:29;;;;;;;1.60;1.38;;;8.50;99.90;;;;;;4945375;29;20683;-69
2024/03/18 17:45:57;;;;;;;1.88;1.30;;;8.50;99.90;;;;;;4942833;29;20217;-69
2024/03/18 17:48:26;;;;;;;2.75;1.30;;;8.50;99.90;;;;;;4944555;28;20205;-70
2024/03/18 17:50:55;;;;;;;3.60;1.90;;;8.40;99.90;;;;;;4944398;29;20582;-69
2024/03/18 17:53:22;;;;;;;1.70;1.70;;;8.40;99.90;;;;;;4945905;29;20231;-69
2024/03/18 17:55:49;;;;;;;1.70;1.60;;;8.40;99.90;;;;;;4945997;29;20213;-70
2024/03/18 17:58:15;;;;;;;2.88;1.52;;;8.40;99.90;;;;;;4946204;29;20244;-69
2024/03/18 18:00:42;;;;;;;2.33;1.55;;;8.40;99.90;;;;;;4943786;29;20267;-70
2024/03/18 18:03:09;;;;;;;2.10;2.00;;;8.40;99.90;;;;;;4940282;29;20212;-70
2024/03/18 18:05:36;;;;;;;2.22;1.98;;;8.40;99.90;;;;;;4943252;28;20250;-70